sensor_id;sensor_type;location;lat;lon;timestamp;temperature;humidity
29237;DHT22;16266;50.866;4.398;2023-11-18T00:00:16;8.00;99.90
29237;DHT22;16266;50.866;4.398;2023-11-18T00:02:42;8.00;99.90
29237;DHT22;16266;50.866;4.398;2023-11-18T00:05:09;8.00;99.90
29237;DHT22;16266;50.866;4.398;2023-11-18T00:07:35;8.00;99.90
29237;DHT22;16266;50.866;4.398;2023-11-18T00:10:01;7.90;99.90
29237;DHT22;16266;50.866;4.398;2023-11-18T00:12:26;7.90;99.90
29237;DHT22;16266;50.866;4.398;2023-11-18T00:14:52;8.00;99.90
29237;DHT22;16266;50.866;4.398;2023-11-18T00:17:17;8.10;99.90
29237;DHT22;16266;50.866;4.398;2023-11-18T00:19:43;8.00;99.90
29237;DHT22;16266;50.866;4.398;2023-11-18T00:22:10;7.90;99.90
29237;DHT22;16266;50.866;4.398;2023-11-18T00:24:37;7.90;99.90
29237;DHT22;16266;50.866;4.398;2023-11-18T00:27:04;7.80;99.90
29237;DHT22;16266;50.866;4.398;2023-11-18T00:29:33;7.80;99.90
29237;DHT22;16266;50.866;4.398;2023-11-18T00:32:00;7.90;99.90
29237;DHT22;16266;50.866;4.398;2023-11-18T00:34:26;7.80;99.90
29237;DHT22;16266;50.866;4.398;2023-11-18T00:36:51;7.70;99.90
29237;DHT22;16266;50.866;4.398;2023-11-18T00:39:17;7.70;99.90
29237;DHT22;16266;50.866;4.398;2023-11-18T00:41:43;7.70;99.90
29237;DHT22;16266;50.866;4.398;2023-11-18T00:44:08;7.60;99.90
29237;DHT22;16266;50.866;4.398;2023-11-18T00:46:35;7.50;99.90
29237;DHT22;16266;50.866;4.398;2023-11-18T00:49:02;7.50;99.90
29237;DHT22;16266;50.866;4.398;2023-11-18T00:51:28;7.60;99.90
29237;DHT22;16266;50.866;4.398;2023-11-18T00:53:54;7.50;99.90
29237;DHT22;16266;50.866;4.398;2023-11-18T00:56:20;7.50;99.90
29237;DHT22;16266;50.866;4.398;2023-11-18T00:58:47;7.40;99.90
29237;DHT22;16266;50.866;4.398;2023-11-18T01:01:13;7.50;99.90
29237;DHT22;16266;50.866;4.398;2023-11-18T01:03:39;7.50;99.90
29237;DHT22;16266;50.866;4.398;2023-11-18T01:06:04;7.60;99.90
29237;DHT22;16266;50.866;4.398;2023-11-18T01:08:31;7.70;99.90
29237;DHT22;16266;50.866;4.398;2023-11-18T01:10:57;7.70;99.90
29237;DHT22;16266;50.866;4.398;2023-11-18T01:13:23;7.70;99.90
29237;DHT22;16266;50.866;4.398;2023-11-18T01:15:49;7.60;99.90
29237;DHT22;16266;50.866;4.398;2023-11-18T01:18:15;7.70;99.90
29237;DHT22;16266;50.866;4.398;2023-11-18T01:20:40;7.70;99.90
29237;DHT22;16266;50.866;4.398;2023-11-18T01:23:06;7.80;99.90
29237;DHT22;16266;50.866;4.398;2023-11-18T01:25:31;7.80;99.90
29237;DHT22;16266;50.866;4.398;2023-11-18T01:27:57;7.80;99.90
29237;DHT22;16266;50.866;4.398;2023-11-18T01:30:23;7.80;99.90
29237;DHT22;16266;50.866;4.398;2023-11-18T01:32:49;7.80;99.90
29237;DHT22;16266;50.866;4.398;2023-11-18T01:35:15;7.90;99.90
29237;DHT22;16266;50.866;4.398;2023-11-18T01:37:40;8.00;99.90
29237;DHT22;16266;50.866;4.398;2023-11-18T01:40:07;8.00;99.90
29237;DHT22;16266;50.866;4.398;2023-11-18T01:42:33;8.00;99.90
29237;DHT22;16266;50.866;4.398;2023-11-18T01:44:59;8.00;99.90
29237;DHT22;16266;50.866;4.398;2023-11-18T01:47:29;8.00;99.90
29237;DHT22;16266;50.866;4.398;2023-11-18T01:49:58;8.10;99.90
29237;DHT22;16266;50.866;4.398;2023-11-18T01:52:27;8.00;99.90
29237;DHT22;16266;50.866;4.398;2023-11-18T01:54:55;7.90;99.90
29237;DHT22;16266;50.866;4.398;2023-11-18T01:57:21;7.80;99.90
29237;DHT22;16266;50.866;4.398;2023-11-18T01:59:47;7.80;99.90
29237;DHT22;16266;50.866;4.398;2023-11-18T02:02:13;7.70;99.90
29237;DHT22;16266;50.866;4.398;2023-11-18T02:04:39;7.70;99.90
29237;DHT22;16266;50.866;4.398;2023-11-18T02:07:05;7.70;99.90
29237;DHT22;16266;50.866;4.398;2023-11-18T02:09:35;7.60;99.90
29237;DHT22;16266;50.866;4.398;2023-11-18T02:14:43;7.60;99.90
29237;DHT22;16266;50.866;4.398;2023-11-18T02:17:13;7.60;99.90
29237;DHT22;16266;50.866;4.398;2023-11-18T02:19:40;7.70;99.90
29237;DHT22;16266;50.866;4.398;2023-11-18T02:22:07;7.60;99.90
29237;DHT22;16266;50.866;4.398;2023-11-18T02:24:33;7.60;99.90
29237;DHT22;16266;50.866;4.398;2023-11-18T02:27:04;7.60;99.90
29237;DHT22;16266;50.866;4.398;2023-11-18T02:29:35;7.60;99.90
29237;DHT22;16266;50.866;4.398;2023-11-18T02:32:29;7.60;99.90
29237;DHT22;16266;50.866;4.398;2023-11-18T02:35:10;7.50;99.90
29237;DHT22;16266;50.866;4.398;2023-11-18T02:37:40;7.50;99.90
29237;DHT22;16266;50.866;4.398;2023-11-18T02:40:12;7.60;99.90
29237;DHT22;16266;50.866;4.398;2023-11-18T02:42:42;7.60;99.90
29237;DHT22;16266;50.866;4.398;2023-11-18T02:45:09;7.60;99.90
29237;DHT22;16266;50.866;4.398;2023-11-18T02:47:38;7.60;99.90
29237;DHT22;16266;50.866;4.398;2023-11-18T02:50:05;7.70;99.90
29237;DHT22;16266;50.866;4.398;2023-11-18T02:52:36;7.80;99.90
29237;DHT22;16266;50.866;4.398;2023-11-18T02:55:04;7.70;99.90
29237;DHT22;16266;50.866;4.398;2023-11-18T02:57:32;7.70;99.90
29237;DHT22;16266;50.866;4.398;2023-11-18T02:59:58;7.80;99.90
29237;DHT22;16266;50.866;4.398;2023-11-18T03:02:26;7.80;99.90
29237;DHT22;16266;50.866;4.398;2023-11-18T03:04:53;7.80;99.90
29237;DHT22;16266;50.866;4.398;2023-11-18T03:07:18;7.80;99.90
29237;DHT22;16266;50.866;4.398;2023-11-18T03:09:44;7.90;99.90
29237;DHT22;16266;50.866;4.398;2023-11-18T03:12:12;7.80;99.90
29237;DHT22;16266;50.866;4.398;2023-11-18T03:14:38;7.80;99.90
29237;DHT22;16266;50.866;4.398;2023-11-18T03:17:04;7.80;99.90
29237;DHT22;16266;50.866;4.398;2023-11-18T03:19:32;7.80;99.90
29237;DHT22;16266;50.866;4.398;2023-11-18T03:22:00;7.80;99.90
29237;DHT22;16266;50.866;4.398;2023-11-18T03:24:27;7.80;99.90
29237;DHT22;16266;50.866;4.398;2023-11-18T03:26:54;7.90;99.90
29237;DHT22;16266;50.866;4.398;2023-11-18T03:29:20;8.00;99.90
29237;DHT22;16266;50.866;4.398;2023-11-18T03:31:46;8.10;99.90
29237;DHT22;16266;50.866;4.398;2023-11-18T03:34:18;8.20;99.90
29237;DHT22;16266;50.866;4.398;2023-11-18T03:36:46;8.40;99.90
29237;DHT22;16266;50.866;4.398;2023-11-18T03:39:14;8.40;99.90
29237;DHT22;16266;50.866;4.398;2023-11-18T03:41:40;8.40;99.90
29237;DHT22;16266;50.866;4.398;2023-11-18T03:44:10;8.40;99.90
29237;DHT22;16266;50.866;4.398;2023-11-18T03:46:36;8.40;99.90
29237;DHT22;16266;50.866;4.398;2023-11-18T03:49:02;8.50;99.90
29237;DHT22;16266;50.866;4.398;2023-11-18T03:51:29;8.40;99.90
29237;DHT22;16266;50.866;4.398;2023-11-18T03:53:54;8.50;99.90
29237;DHT22;16266;50.866;4.398;2023-11-18T03:56:20;8.40;99.90
29237;DHT22;16266;50.866;4.398;2023-11-18T03:58:46;8.40;99.90
29237;DHT22;16266;50.866;4.398;2023-11-18T04:01:24;8.30;99.90
29237;DHT22;16266;50.866;4.398;2023-11-18T04:03:53;8.30;99.90
29237;DHT22;16266;50.866;4.398;2023-11-18T04:06:20;8.20;99.90
29237;DHT22;16266;50.866;4.398;2023-11-18T04:08:47;8.30;99.90
29237;DHT22;16266;50.866;4.398;2023-11-18T04:11:14;8.20;99.90
29237;DHT22;16266;50.866;4.398;2023-11-18T04:13:40;8.20;99.90
29237;DHT22;16266;50.866;4.398;2023-11-18T04:16:19;8.20;99.90
29237;DHT22;16266;50.866;4.398;2023-11-18T04:18:45;8.20;99.90
29237;DHT22;16266;50.866;4.398;2023-11-18T04:21:11;8.20;99.90
29237;DHT22;16266;50.866;4.398;2023-11-18T04:23:40;8.20;99.90
29237;DHT22;16266;50.866;4.398;2023-11-18T04:26:07;8.20;99.90
29237;DHT22;16266;50.866;4.398;2023-11-18T04:28:36;8.20;99.90
29237;DHT22;16266;50.866;4.398;2023-11-18T04:31:02;8.10;99.90
29237;DHT22;16266;50.866;4.398;2023-11-18T04:33:29;8.20;99.90
29237;DHT22;16266;50.866;4.398;2023-11-18T04:35:55;8.20;99.90
29237;DHT22;16266;50.866;4.398;2023-11-18T04:38:24;8.30;99.90
29237;DHT22;16266;50.866;4.398;2023-11-18T04:40:53;8.30;99.90
29237;DHT22;16266;50.866;4.398;2023-11-18T04:43:22;8.30;99.90
29237;DHT22;16266;50.866;4.398;2023-11-18T04:45:49;8.40;99.90
29237;DHT22;16266;50.866;4.398;2023-11-18T04:48:15;8.40;99.90
29237;DHT22;16266;50.866;4.398;2023-11-18T04:50:43;8.50;99.90
29237;DHT22;16266;50.866;4.398;2023-11-18T04:53:09;8.50;99.90
29237;DHT22;16266;50.866;4.398;2023-11-18T04:55:39;8.50;99.90
29237;DHT22;16266;50.866;4.398;2023-11-18T04:58:04;8.40;99.90
29237;DHT22;16266;50.866;4.398;2023-11-18T05:00:37;8.30;99.90
29237;DHT22;16266;50.866;4.398;2023-11-18T05:03:08;8.40;99.90
29237;DHT22;16266;50.866;4.398;2023-11-18T05:05:38;8.50;99.90
29237;DHT22;16266;50.866;4.398;2023-11-18T05:08:05;8.50;99.90
29237;DHT22;16266;50.866;4.398;2023-11-18T05:10:32;8.60;99.90
29237;DHT22;16266;50.866;4.398;2023-11-18T05:12:58;8.50;99.90
29237;DHT22;16266;50.866;4.398;2023-11-18T05:15:24;8.40;99.90
29237;DHT22;16266;50.866;4.398;2023-11-18T05:17:51;8.40;99.90
29237;DHT22;16266;50.866;4.398;2023-11-18T05:20:16;8.30;99.90
29237;DHT22;16266;50.866;4.398;2023-11-18T05:22:43;8.30;99.90
29237;DHT22;16266;50.866;4.398;2023-11-18T05:25:08;8.40;99.90
29237;DHT22;16266;50.866;4.398;2023-11-18T05:27:35;8.30;99.90
29237;DHT22;16266;50.866;4.398;2023-11-18T05:30:01;8.30;99.90
29237;DHT22;16266;50.866;4.398;2023-11-18T05:32:27;8.30;99.90
29237;DHT22;16266;50.866;4.398;2023-11-18T05:34:53;8.20;99.90
29237;DHT22;16266;50.866;4.398;2023-11-18T05:37:24;8.30;99.90
29237;DHT22;16266;50.866;4.398;2023-11-18T05:39:50;8.40;99.90
29237;DHT22;16266;50.866;4.398;2023-11-18T05:42:27;8.30;99.90
29237;DHT22;16266;50.866;4.398;2023-11-18T05:44:53;8.40;99.90
29237;DHT22;16266;50.866;4.398;2023-11-18T05:47:25;8.40;99.90
29237;DHT22;16266;50.866;4.398;2023-11-18T05:49:51;8.40;99.90
29237;DHT22;16266;50.866;4.398;2023-11-18T05:52:17;8.50;99.90
29237;DHT22;16266;50.866;4.398;2023-11-18T05:54:43;8.50;99.90
29237;DHT22;16266;50.866;4.398;2023-11-18T05:57:08;8.50;99.90
29237;DHT22;16266;50.866;4.398;2023-11-18T05:59:34;8.50;99.90
29237;DHT22;16266;50.866;4.398;2023-11-18T06:01:59;8.50;99.90
29237;DHT22;16266;50.866;4.398;2023-11-18T06:04:25;8.50;99.90
29237;DHT22;16266;50.866;4.398;2023-11-18T06:06:51;8.50;99.90
29237;DHT22;16266;50.866;4.398;2023-11-18T06:09:17;8.60;99.90
29237;DHT22;16266;50.866;4.398;2023-11-18T06:11:54;8.60;99.90
29237;DHT22;16266;50.866;4.398;2023-11-18T06:14:20;8.70;99.90
29237;DHT22;16266;50.866;4.398;2023-11-18T06:16:47;8.60;99.90
29237;DHT22;16266;50.866;4.398;2023-11-18T06:19:13;8.60;99.90
29237;DHT22;16266;50.866;4.398;2023-11-18T06:21:40;8.70;99.90
29237;DHT22;16266;50.866;4.398;2023-11-18T06:24:06;8.70;99.90
29237;DHT22;16266;50.866;4.398;2023-11-18T06:26:32;8.80;99.90
29237;DHT22;16266;50.866;4.398;2023-11-18T06:29:01;8.80;99.90
29237;DHT22;16266;50.866;4.398;2023-11-18T06:31:27;8.80;99.90
29237;DHT22;16266;50.866;4.398;2023-11-18T06:33:54;8.80;99.90
29237;DHT22;16266;50.866;4.398;2023-11-18T06:36:21;8.80;99.90
29237;DHT22;16266;50.866;4.398;2023-11-18T06:38:49;8.80;99.90
29237;DHT22;16266;50.866;4.398;2023-11-18T06:41:21;8.80;99.90
29237;DHT22;16266;50.866;4.398;2023-11-18T06:43:58;8.90;99.90
29237;DHT22;16266;50.866;4.398;2023-11-18T06:46:28;8.80;99.90
29237;DHT22;16266;50.866;4.398;2023-11-18T06:49:01;8.80;99.90
29237;DHT22;16266;50.866;4.398;2023-11-18T06:51:33;8.90;99.90
29237;DHT22;16266;50.866;4.398;2023-11-18T06:54:04;8.90;99.90
29237;DHT22;16266;50.866;4.398;2023-11-18T06:56:42;8.90;99.90
29237;DHT22;16266;50.866;4.398;2023-11-18T06:59:09;8.90;99.90
29237;DHT22;16266;50.866;4.398;2023-11-18T07:01:41;8.90;99.90
29237;DHT22;16266;50.866;4.398;2023-11-18T07:04:10;8.90;99.90
29237;DHT22;16266;50.866;4.398;2023-11-18T07:06:36;9.00;99.90
29237;DHT22;16266;50.866;4.398;2023-11-18T07:09:07;9.00;99.90
29237;DHT22;16266;50.866;4.398;2023-11-18T07:11:42;9.00;99.90
29237;DHT22;16266;50.866;4.398;2023-11-18T07:14:10;8.90;99.90
29237;DHT22;16266;50.866;4.398;2023-11-18T07:16:38;8.80;99.90
29237;DHT22;16266;50.866;4.398;2023-11-18T07:19:05;8.90;99.90
29237;DHT22;16266;50.866;4.398;2023-11-18T07:21:30;8.90;99.90
29237;DHT22;16266;50.866;4.398;2023-11-18T07:23:56;8.90;99.90
29237;DHT22;16266;50.866;4.398;2023-11-18T07:26:24;8.80;99.90
29237;DHT22;16266;50.866;4.398;2023-11-18T07:28:50;8.70;99.90
29237;DHT22;16266;50.866;4.398;2023-11-18T07:31:17;8.70;99.90
29237;DHT22;16266;50.866;4.398;2023-11-18T07:33:44;8.70;99.90
29237;DHT22;16266;50.866;4.398;2023-11-18T07:36:18;8.60;99.90
29237;DHT22;16266;50.866;4.398;2023-11-18T07:38:46;8.60;99.90
29237;DHT22;16266;50.866;4.398;2023-11-18T07:41:12;8.60;99.90
29237;DHT22;16266;50.866;4.398;2023-11-18T07:43:50;8.50;99.90
29237;DHT22;16266;50.866;4.398;2023-11-18T07:46:16;8.50;99.90
29237;DHT22;16266;50.866;4.398;2023-11-18T07:48:42;8.60;99.90
29237;DHT22;16266;50.866;4.398;2023-11-18T07:51:07;8.50;99.90
29237;DHT22;16266;50.866;4.398;2023-11-18T07:53:33;8.50;99.90
29237;DHT22;16266;50.866;4.398;2023-11-18T07:55:59;8.40;99.90
29237;DHT22;16266;50.866;4.398;2023-11-18T07:58:26;8.40;99.90
29237;DHT22;16266;50.866;4.398;2023-11-18T08:00:53;8.40;99.90
29237;DHT22;16266;50.866;4.398;2023-11-18T08:03:20;8.50;99.90
29237;DHT22;16266;50.866;4.398;2023-11-18T08:05:46;8.40;99.90
29237;DHT22;16266;50.866;4.398;2023-11-18T08:08:12;8.40;99.90
29237;DHT22;16266;50.866;4.398;2023-11-18T08:10:39;8.40;99.90
29237;DHT22;16266;50.866;4.398;2023-11-18T08:13:08;8.30;99.90
29237;DHT22;16266;50.866;4.398;2023-11-18T08:15:38;8.30;99.90
29237;DHT22;16266;50.866;4.398;2023-11-18T08:18:04;8.30;99.90
29237;DHT22;16266;50.866;4.398;2023-11-18T08:20:30;8.30;99.90
29237;DHT22;16266;50.866;4.398;2023-11-18T08:22:56;8.30;99.90
29237;DHT22;16266;50.866;4.398;2023-11-18T08:25:21;8.30;99.90
29237;DHT22;16266;50.866;4.398;2023-11-18T08:27:48;8.30;99.90
29237;DHT22;16266;50.866;4.398;2023-11-18T08:30:14;8.40;99.90
29237;DHT22;16266;50.866;4.398;2023-11-18T08:32:41;8.30;99.90
29237;DHT22;16266;50.866;4.398;2023-11-18T08:35:09;8.30;99.90
29237;DHT22;16266;50.866;4.398;2023-11-18T08:37:38;8.30;99.90
29237;DHT22;16266;50.866;4.398;2023-11-18T08:40:04;8.30;99.90
29237;DHT22;16266;50.866;4.398;2023-11-18T08:42:44;8.40;99.90
29237;DHT22;16266;50.866;4.398;2023-11-18T08:45:22;8.40;99.90
29237;DHT22;16266;50.866;4.398;2023-11-18T08:47:52;8.40;99.90
29237;DHT22;16266;50.866;4.398;2023-11-18T08:50:19;8.40;99.90
29237;DHT22;16266;50.866;4.398;2023-11-18T08:52:49;8.50;99.90
29237;DHT22;16266;50.866;4.398;2023-11-18T08:55:18;8.50;99.90
29237;DHT22;16266;50.866;4.398;2023-11-18T08:57:48;8.50;99.90
29237;DHT22;16266;50.866;4.398;2023-11-18T09:00:28;8.50;99.90
29237;DHT22;16266;50.866;4.398;2023-11-18T09:03:16;8.60;99.90
29237;DHT22;16266;50.866;4.398;2023-11-18T09:05:57;8.60;99.90
29237;DHT22;16266;50.866;4.398;2023-11-18T09:08:30;8.60;99.90
29237;DHT22;16266;50.866;4.398;2023-11-18T09:11:03;8.60;99.90
29237;DHT22;16266;50.866;4.398;2023-11-18T09:13:33;8.60;99.90
29237;DHT22;16266;50.866;4.398;2023-11-18T09:16:01;8.60;99.90
29237;DHT22;16266;50.866;4.398;2023-11-18T09:18:28;8.70;99.90
29237;DHT22;16266;50.866;4.398;2023-11-18T09:20:56;8.60;99.90
29237;DHT22;16266;50.866;4.398;2023-11-18T09:23:25;8.60;99.90
29237;DHT22;16266;50.866;4.398;2023-11-18T09:25:51;8.70;99.90
29237;DHT22;16266;50.866;4.398;2023-11-18T09:28:23;8.80;99.90
29237;DHT22;16266;50.866;4.398;2023-11-18T09:30:50;8.80;99.90
29237;DHT22;16266;50.866;4.398;2023-11-18T09:33:20;8.80;99.90
29237;DHT22;16266;50.866;4.398;2023-11-18T09:35:57;8.80;99.90
29237;DHT22;16266;50.866;4.398;2023-11-18T09:38:32;8.80;99.90
29237;DHT22;16266;50.866;4.398;2023-11-18T09:41:01;8.80;99.90
29237;DHT22;16266;50.866;4.398;2023-11-18T09:43:33;8.80;99.90
29237;DHT22;16266;50.866;4.398;2023-11-18T09:46:06;8.70;99.90
29237;DHT22;16266;50.866;4.398;2023-11-18T09:48:45;8.70;99.90
29237;DHT22;16266;50.866;4.398;2023-11-18T09:51:24;8.80;99.90
29237;DHT22;16266;50.866;4.398;2023-11-18T09:53:52;8.70;99.90
29237;DHT22;16266;50.866;4.398;2023-11-18T09:56:58;8.70;99.90
29237;DHT22;16266;50.866;4.398;2023-11-18T10:00:21;8.70;99.90
29237;DHT22;16266;50.866;4.398;2023-11-18T10:02:24;8.80;99.90
29237;DHT22;16266;50.866;4.398;2023-11-18T10:04:50;8.80;99.90
29237;DHT22;16266;50.866;4.398;2023-11-18T10:07:24;8.90;99.90
29237;DHT22;16266;50.866;4.398;2023-11-18T10:09:56;8.90;99.90
29237;DHT22;16266;50.866;4.398;2023-11-18T10:12:23;8.80;99.90
29237;DHT22;16266;50.866;4.398;2023-11-18T10:14:49;8.80;99.90
29237;DHT22;16266;50.866;4.398;2023-11-18T10:17:17;8.90;99.90
29237;DHT22;16266;50.866;4.398;2023-11-18T10:19:54;9.00;99.90
29237;DHT22;16266;50.866;4.398;2023-11-18T10:22:29;8.90;99.90
29237;DHT22;16266;50.866;4.398;2023-11-18T10:24:56;9.00;99.90
29237;DHT22;16266;50.866;4.398;2023-11-18T10:27:25;9.00;99.90
29237;DHT22;16266;50.866;4.398;2023-11-18T10:30:11;9.00;99.90
29237;DHT22;16266;50.866;4.398;2023-11-18T10:32:56;9.00;99.90
29237;DHT22;16266;50.866;4.398;2023-11-18T10:35:31;9.00;99.90
29237;DHT22;16266;50.866;4.398;2023-11-18T10:37:57;9.00;99.90
29237;DHT22;16266;50.866;4.398;2023-11-18T10:40:25;9.00;99.90
29237;DHT22;16266;50.866;4.398;2023-11-18T10:42:52;9.00;99.90
29237;DHT22;16266;50.866;4.398;2023-11-18T10:45:27;9.10;99.90
29237;DHT22;16266;50.866;4.398;2023-11-18T10:47:54;9.20;99.90
29237;DHT22;16266;50.866;4.398;2023-11-18T10:50:21;9.10;99.90
29237;DHT22;16266;50.866;4.398;2023-11-18T10:52:47;9.10;99.90
29237;DHT22;16266;50.866;4.398;2023-11-18T10:55:13;9.10;99.90
29237;DHT22;16266;50.866;4.398;2023-11-18T10:57:45;9.10;99.90
29237;DHT22;16266;50.866;4.398;2023-11-18T11:00:11;9.10;99.90
29237;DHT22;16266;50.866;4.398;2023-11-18T11:02:40;9.10;99.90
29237;DHT22;16266;50.866;4.398;2023-11-18T11:05:11;9.10;99.90
29237;DHT22;16266;50.866;4.398;2023-11-18T11:07:42;9.10;99.90
29237;DHT22;16266;50.866;4.398;2023-11-18T11:10:08;9.20;99.90
29237;DHT22;16266;50.866;4.398;2023-11-18T11:12:39;9.10;99.90
29237;DHT22;16266;50.866;4.398;2023-11-18T11:15:12;9.10;99.90
29237;DHT22;16266;50.866;4.398;2023-11-18T11:17:50;9.10;99.90
29237;DHT22;16266;50.866;4.398;2023-11-18T11:20:21;9.10;99.90
29237;DHT22;16266;50.866;4.398;2023-11-18T11:23:01;9.10;99.90
29237;DHT22;16266;50.866;4.398;2023-11-18T11:26:02;9.20;99.90
29237;DHT22;16266;50.866;4.398;2023-11-18T11:28:58;9.20;99.90
29237;DHT22;16266;50.866;4.398;2023-11-18T11:31:37;9.30;99.90
29237;DHT22;16266;50.866;4.398;2023-11-18T11:34:14;9.30;99.90
29237;DHT22;16266;50.866;4.398;2023-11-18T11:36:44;9.50;99.90
29237;DHT22;16266;50.866;4.398;2023-11-18T11:39:13;9.40;99.90
29237;DHT22;16266;50.866;4.398;2023-11-18T11:41:45;9.40;99.90
29237;DHT22;16266;50.866;4.398;2023-11-18T11:44:16;9.40;99.90
29237;DHT22;16266;50.866;4.398;2023-11-18T11:46:46;9.40;99.90
29237;DHT22;16266;50.866;4.398;2023-11-18T11:49:20;9.40;99.90
29237;DHT22;16266;50.866;4.398;2023-11-18T11:51:47;9.40;99.90
29237;DHT22;16266;50.866;4.398;2023-11-18T11:56:47;9.40;99.90
29237;DHT22;16266;50.866;4.398;2023-11-18T11:59:17;9.40;99.90
29237;DHT22;16266;50.866;4.398;2023-11-18T12:01:47;9.50;99.90
29237;DHT22;16266;50.866;4.398;2023-11-18T12:04:17;9.60;99.90
29237;DHT22;16266;50.866;4.398;2023-11-18T12:06:47;9.60;99.90
29237;DHT22;16266;50.866;4.398;2023-11-18T12:09:16;9.60;99.90
29237;DHT22;16266;50.866;4.398;2023-11-18T12:11:48;9.60;99.90
29237;DHT22;16266;50.866;4.398;2023-11-18T12:14:15;9.70;99.90
29237;DHT22;16266;50.866;4.398;2023-11-18T12:17:22;9.70;99.90
29237;DHT22;16266;50.866;4.398;2023-11-18T12:19:50;9.60;99.90
29237;DHT22;16266;50.866;4.398;2023-11-18T12:22:22;9.60;99.90
29237;DHT22;16266;50.866;4.398;2023-11-18T12:27:44;9.60;99.90
29237;DHT22;16266;50.866;4.398;2023-11-18T12:41:04;9.60;99.90
29237;DHT22;16266;50.866;4.398;2023-11-18T12:44:37;9.60;99.90
29237;DHT22;16266;50.866;4.398;2023-11-18T12:46:59;9.80;99.90
29237;DHT22;16266;50.866;4.398;2023-11-18T12:49:44;9.70;99.90
29237;DHT22;16266;50.866;4.398;2023-11-18T12:52:11;9.60;99.90
29237;DHT22;16266;50.866;4.398;2023-11-18T12:54:41;9.60;99.90
29237;DHT22;16266;50.866;4.398;2023-11-18T12:57:12;9.60;99.90
29237;DHT22;16266;50.866;4.398;2023-11-18T12:59:41;9.70;99.90
29237;DHT22;16266;50.866;4.398;2023-11-18T13:02:11;9.60;99.90
29237;DHT22;16266;50.866;4.398;2023-11-18T13:04:48;9.60;99.90
29237;DHT22;16266;50.866;4.398;2023-11-18T13:07:18;9.60;99.90
29237;DHT22;16266;50.866;4.398;2023-11-18T13:09:44;9.60;99.90
29237;DHT22;16266;50.866;4.398;2023-11-18T13:12:11;9.60;99.90
29237;DHT22;16266;50.866;4.398;2023-11-18T13:14:41;9.70;99.90
29237;DHT22;16266;50.866;4.398;2023-11-18T13:17:12;9.70;99.90
29237;DHT22;16266;50.866;4.398;2023-11-18T13:19:39;9.80;99.90
29237;DHT22;16266;50.866;4.398;2023-11-18T13:22:09;9.90;99.90
29237;DHT22;16266;50.866;4.398;2023-11-18T13:24:35;9.80;99.90
29237;DHT22;16266;50.866;4.398;2023-11-18T13:27:03;9.80;99.90
29237;DHT22;16266;50.866;4.398;2023-11-18T13:29:30;9.80;99.90
29237;DHT22;16266;50.866;4.398;2023-11-18T13:31:56;9.80;99.90
29237;DHT22;16266;50.866;4.398;2023-11-18T13:34:23;9.80;99.90
29237;DHT22;16266;50.866;4.398;2023-11-18T13:36:50;9.80;99.90
29237;DHT22;16266;50.866;4.398;2023-11-18T13:39:20;9.80;99.90
29237;DHT22;16266;50.866;4.398;2023-11-18T13:41:49;9.90;99.90
29237;DHT22;16266;50.866;4.398;2023-11-18T13:44:34;9.80;99.90
29237;DHT22;16266;50.866;4.398;2023-11-18T13:47:01;9.80;99.90
29237;DHT22;16266;50.866;4.398;2023-11-18T13:49:31;9.80;99.90
29237;DHT22;16266;50.866;4.398;2023-11-18T13:51:57;9.90;99.90
29237;DHT22;16266;50.866;4.398;2023-11-18T13:54:24;10.00;99.90
29237;DHT22;16266;50.866;4.398;2023-11-18T13:56:51;10.00;99.90
29237;DHT22;16266;50.866;4.398;2023-11-18T13:59:18;10.00;99.90
29237;DHT22;16266;50.866;4.398;2023-11-18T14:01:44;10.00;99.90
29237;DHT22;16266;50.866;4.398;2023-11-18T14:04:11;10.10;99.90
29237;DHT22;16266;50.866;4.398;2023-11-18T14:06:37;10.00;99.90
29237;DHT22;16266;50.866;4.398;2023-11-18T14:09:05;10.10;99.90
29237;DHT22;16266;50.866;4.398;2023-11-18T14:11:31;10.00;99.90
29237;DHT22;16266;50.866;4.398;2023-11-18T14:13:56;10.10;99.90
29237;DHT22;16266;50.866;4.398;2023-11-18T14:16:24;10.10;99.90
29237;DHT22;16266;50.866;4.398;2023-11-18T14:18:51;10.00;99.90
29237;DHT22;16266;50.866;4.398;2023-11-18T14:21:17;10.10;99.90
29237;DHT22;16266;50.866;4.398;2023-11-18T14:23:44;10.10;99.90
29237;DHT22;16266;50.866;4.398;2023-11-18T14:26:10;10.20;99.90
29237;DHT22;16266;50.866;4.398;2023-11-18T14:28:36;10.20;99.90
29237;DHT22;16266;50.866;4.398;2023-11-18T14:31:02;10.20;99.90
29237;DHT22;16266;50.866;4.398;2023-11-18T14:33:30;10.20;99.90
29237;DHT22;16266;50.866;4.398;2023-11-18T14:36:01;10.20;99.90
29237;DHT22;16266;50.866;4.398;2023-11-18T14:38:30;10.30;99.90
29237;DHT22;16266;50.866;4.398;2023-11-18T14:40:56;10.30;99.90
29237;DHT22;16266;50.866;4.398;2023-11-18T14:43:21;10.30;99.90
29237;DHT22;16266;50.866;4.398;2023-11-18T14:45:47;10.30;99.90
29237;DHT22;16266;50.866;4.398;2023-11-18T14:48:15;10.30;99.90
29237;DHT22;16266;50.866;4.398;2023-11-18T14:50:41;10.40;99.90
29237;DHT22;16266;50.866;4.398;2023-11-18T14:53:06;10.40;99.90
29237;DHT22;16266;50.866;4.398;2023-11-18T14:55:32;10.40;99.90
29237;DHT22;16266;50.866;4.398;2023-11-18T14:58:03;10.40;99.90
29237;DHT22;16266;50.866;4.398;2023-11-18T15:00:30;10.50;99.90
29237;DHT22;16266;50.866;4.398;2023-11-18T15:02:58;10.50;99.90
29237;DHT22;16266;50.866;4.398;2023-11-18T15:05:24;10.50;99.90
29237;DHT22;16266;50.866;4.398;2023-11-18T15:07:54;10.50;99.90
29237;DHT22;16266;50.866;4.398;2023-11-18T15:10:22;10.50;99.90
29237;DHT22;16266;50.866;4.398;2023-11-18T15:12:53;10.50;99.90
29237;DHT22;16266;50.866;4.398;2023-11-18T15:15:24;10.50;99.90
29237;DHT22;16266;50.866;4.398;2023-11-18T15:17:57;10.50;99.90
29237;DHT22;16266;50.866;4.398;2023-11-18T15:20:23;10.50;99.90
29237;DHT22;16266;50.866;4.398;2023-11-18T15:22:49;10.50;99.90
29237;DHT22;16266;50.866;4.398;2023-11-18T15:25:15;10.50;99.90
29237;DHT22;16266;50.866;4.398;2023-11-18T15:27:43;10.60;99.90
29237;DHT22;16266;50.866;4.398;2023-11-18T15:30:14;10.60;99.90
29237;DHT22;16266;50.866;4.398;2023-11-18T15:32:42;10.70;99.90
29237;DHT22;16266;50.866;4.398;2023-11-18T15:35:09;10.70;99.90
29237;DHT22;16266;50.866;4.398;2023-11-18T15:37:39;10.70;99.90
29237;DHT22;16266;50.866;4.398;2023-11-18T15:40:08;10.80;99.90
29237;DHT22;16266;50.866;4.398;2023-11-18T15:42:42;10.80;99.90
29237;DHT22;16266;50.866;4.398;2023-11-18T15:45:11;10.80;99.90
29237;DHT22;16266;50.866;4.398;2023-11-18T15:47:38;10.80;99.90
29237;DHT22;16266;50.866;4.398;2023-11-18T15:50:07;10.90;99.90
29237;DHT22;16266;50.866;4.398;2023-11-18T15:52:34;10.90;99.90
29237;DHT22;16266;50.866;4.398;2023-11-18T15:55:01;10.90;99.90
29237;DHT22;16266;50.866;4.398;2023-11-18T15:57:27;10.80;99.90
29237;DHT22;16266;50.866;4.398;2023-11-18T15:59:54;10.80;99.90
29237;DHT22;16266;50.866;4.398;2023-11-18T16:02:20;10.90;99.90
29237;DHT22;16266;50.866;4.398;2023-11-18T16:04:46;10.90;99.90
29237;DHT22;16266;50.866;4.398;2023-11-18T16:07:11;10.90;99.90
29237;DHT22;16266;50.866;4.398;2023-11-18T16:09:37;11.00;99.90
29237;DHT22;16266;50.866;4.398;2023-11-18T16:12:03;11.00;99.90
29237;DHT22;16266;50.866;4.398;2023-11-18T16:14:29;11.00;99.90